Latest Weather Observations for Rottnest Island

IDW60901

Issued at 7:51 pm WST Sunday 30 August 2015 (issued every 10 minutes, with the page automatically refreshed every 10 minutes)

About weather observations | Map of Perth area stations | Latest observations for Perth area | Other Formats
Station Details ID: 009193 Name: ROTTNEST ISLAND Lat: -32.01 Lon: 115.50 Height: 43.1 m
Data from the previous 72 hours. | See also: Recent months at Rottnest Island
Date/Time
WST
Tmp

°C
App
Tmp
°C
Dew
Point
°C
Rel
Hum
%
Delta-T

°C
Wind Press
QNH
hPa
Press
MSL
hPa
Rain
since
9 am
mm
Dir
 
Spd
km/h
Gust
km/h
Spd
kts
Gust
kts
30/07:30pm 13.7 10.1 5.1 56 4.0 W 13 17 7 9 1021.0 1021.0 0.0
30/07:00pm 14.1 12.5 4.7 53 4.3 SW 2 7 1 4 1020.8 1020.8 0.0
30/06:30pm 13.7 11.7 7.2 65 3.2 SSE 7 9 4 5 1020.6 1020.6 0.0
30/06:00pm 13.8 9.0 7.3 65 3.2 SSW 22 32 12 17 1020.5 1020.5 0.0
30/05:30pm 14.9 11.3 6.7 58 4.0 SW 15 19 8 10 1020.3 1020.3 0.0
30/05:00pm 15.3 11.8 7.1 58 4.0 SW 15 20 8 11 1020.1 1020.1 0.0
30/04:30pm 15.6 11.0 6.6 55 4.4 SW 20 24 11 13 1019.9 1019.9 0.0
30/04:00pm 16.4 11.7 6.2 51 5.0 SW 20 24 11 13 1019.9 1019.9 0.0
30/03:30pm 16.4 11.9 6.0 50 5.1 SSW 19 24 10 13 1020.0 1020.0 0.0
30/03:00pm 16.0 11.4 6.7 54 4.6 SW 20 28 11 15 1019.9 1019.9 0.0
30/02:30pm 16.3 11.6 6.2 51 4.9 SSW 20 28 11 15 1019.7 1019.7 0.0
30/02:00pm 15.8 11.7 7.8 59 4.0 SSW 19 24 10 13 1019.5 1019.5 0.0
30/01:30pm 16.3 11.5 7.3 55 4.5 S 22 28 12 15 1019.4 1019.4 0.0
30/01:00pm 16.7 12.2 6.8 52 4.9 SSW 20 28 11 15 1019.5 1019.5 0.0
30/12:30pm 17.0 12.1 7.1 52 4.9 SSW 22 30 12 16 1019.7 1019.7 0.0
30/12:00pm 16.8 11.2 8.8 59 4.1 SSW 28 35 15 19 1019.8 1019.8 0.0
30/11:30am 16.8 9.9 8.8 59 4.1 SSW 35 43 19 23 1019.8 1019.8 0.0
30/11:00am 17.0 10.7 5.9 48 5.4 SW 28 35 15 19 1019.9 1019.9 0.0
30/10:30am 16.8 10.2 7.7 55 4.6 SW 32 39 17 21 1019.9 1019.9 0.0
30/10:00am 16.3 9.7 7.8 57 4.3 SSW 32 41 17 22 1019.8 1019.8 0.0
30/09:30am 16.7 9.2 6.2 50 5.1 SW 35 43 19 23 1019.5 1019.5 0.0
30/09:00am 16.0 8.2 4.7 47 5.3 SW 35 43 19 23 1019.3 1019.3 4.2
30/08:30am 15.8 8.3 6.5 54 4.5 SW 35 44 19 24 1019.0 1019.0 4.2
30/08:00am 15.7 7.7 5.9 52 4.7 SW 37 44 20 24 1018.5 1018.5 4.2
30/07:30am 15.8 8.8 7.0 56 4.3 SW 33 44 18 24 1018.0 1018.0 4.2
30/07:00am 15.1 6.7 9.0 67 3.1 SW 43 54 23 29 1017.3 1017.3 4.2
30/06:30am 15.3 7.9 8.5 64 3.4 SW 37 44 20 24 1016.7 1016.6 4.2
30/06:00am 14.7 6.7 9.1 69 2.9 SW 41 56 22 30 1016.4 1016.3 4.2
30/05:57am 15.1 8.4 9.7 70 2.8 SW 35 54 19 29 1016.5 1016.4 4.2
30/05:30am 15.1 8.1 8.6 65 3.3 SW 35 44 19 24 1016.2 1016.1 4.2
30/05:00am 15.1 8.6 10.3 73 2.5 SW 35 46 19 25 1015.9 1015.8 4.2
30/04:30am 15.0 8.3 9.6 70 2.8 SW 35 44 19 24 1015.7 1015.6 4.2
30/04:00am 15.3 8.3 10.1 71 2.7 SW 37 46 20 25 1015.5 1015.4 4.2
30/03:30am 15.5 7.7 11.1 75 2.4 SW 43 50 23 27 1015.2 1015.1 4.2
30/03:00am 15.8 9.7 9.7 67 3.2 WSW 32 44 17 24 1015.1 1015.0 4.2
30/02:30am 16.3 10.0 11.0 71 2.8 SW 35 48 19 26 1014.9 1014.8 4.2
30/02:00am 15.2 9.3 10.6 74 2.4 WSW 32 41 17 22 1014.9 1014.8 4.2
30/01:30am 15.2 10.2 12.1 82 1.7 W 30 46 16 25 1014.8 1014.7 4.2
30/01:20am 14.8 10.1 12.1 84 1.5 W 28 43 15 23 1014.9 1014.8 4.2
30/01:00am 15.2 12.5 12.9 86 1.3 WSW 19 24 10 13 1014.7 1014.6 4.0
30/12:30am 16.1 11.6 11.5 74 2.5 W 26 35 14 19 1014.5 1014.4 4.0
30/12:00am 15.8 12.5 11.6 76 2.3 WSW 20 28 11 15 1014.3 1014.2 4.0
 
Date/Time
WST
Tmp

°C
App
Tmp
°C
Dew
Point
°C
Rel
Hum
%
Delta-T

°C
Wind Press
QNH
hPa
Press
MSL
hPa
Rain
since
9 am
mm
Dir
 
Spd
km/h
Gust
km/h
Spd
kts
Gust
kts
29/11:30pm 16.0 11.9 11.4 74 2.5 W 24 28 13 15 1014.2 1014.1 4.0
29/11:00pm 15.7 12.4 11.5 76 2.3 WSW 20 28 11 15 1014.1 1014.0 4.0
29/10:30pm 15.5 11.8 11.5 77 2.2 W 22 32 12 17 1014.2 1014.1 4.0
29/10:00pm 15.8 12.8 13.6 87 1.2 WSW 22 28 12 15 1014.3 1014.2 4.0
29/09:30pm 15.6 12.9 14.5 93 0.6 WSW 22 32 12 17 1014.0 1013.9 4.0
29/09:00pm 15.6 11.1 14.8 95 0.5 WSW 32 39 17 21 1013.7 1013.6 4.0
29/08:44pm 15.8 9.4 14.3 91 0.9 WNW 41 54 22 29 1013.5 1013.4 3.2
29/08:35pm 16.8 12.2 15.0 89 1.0 NW 33 52 18 28 1013.2 1013.1 2.6
29/08:30pm 16.5 13.3 15.4 93 0.6 NW 26 39 14 21 1013.2 1013.1 2.6
29/08:27pm 16.5 13.4 15.5 94 0.6 NW 26 33 14 18 1013.3 1013.2 2.6
29/08:00pm 15.9 10.0 14.8 93 0.6 WNW 39 52 21 28 1013.3 1013.2 2.4
29/07:50pm 16.7 11.7 14.0 84 1.5 NW 33 52 18 28 1013.1 1013.0 1.0
29/07:30pm 18.4 13.6 12.8 70 3.1 NNW 30 39 16 21 1012.6 1012.5 0.6
29/07:00pm 18.2 12.9 12.6 70 3.1 NNW 32 41 17 22 1012.5 1012.4 0.6
29/06:30pm 18.1 13.8 13.2 73 2.8 NW 28 37 15 20 1012.4 1012.3 0.6
29/06:00pm 18.0 14.4 13.1 73 2.8 NW 24 32 13 17 1012.1 1012.0 0.6
29/05:30pm 18.4 14.2 12.4 68 3.3 NW 26 33 14 18 1012.0 1011.9 0.6
29/05:00pm 18.9 14.0 12.4 66 3.6 NW 30 35 16 19 1011.9 1011.8 0.6
29/04:30pm 19.1 15.0 12.8 67 3.5 NW 26 35 14 19 1011.8 1011.7 0.6
29/04:00pm 19.9 16.5 13.8 68 3.5 WNW 24 30 13 16 1011.9 1011.8 0.6
29/03:30pm 19.2 15.4 13.6 70 3.2 WNW 26 32 14 17 1011.8 1011.7 0.6
29/03:00pm 20.2 16.2 14.1 68 3.5 WNW 28 35 15 19 1011.8 1011.7 0.6
29/02:30pm 20.0 15.7 14.4 70 3.3 W 30 37 16 20 1011.8 1011.7 0.6
29/02:00pm 20.0 14.6 13.9 68 3.5 WNW 35 44 19 24 1011.7 1011.6 0.6
29/01:30pm 19.5 14.3 14.5 73 2.9 WNW 35 46 19 25 1011.6 1011.5 0.6
29/01:00pm 19.7 13.2 15.1 75 2.7 NW 43 56 23 30 1011.7 1011.6 0.6
29/12:30pm 19.6 13.4 15.9 79 2.2 NW 43 54 23 29 1011.8 1011.7 0.6
29/12:00pm 18.4 13.5 16.4 88 1.2 NNW 37 50 20 27 1012.0 1011.9 0.6
29/11:30am 16.9 11.1 15.9 94 0.6 NNW 41 52 22 28 1012.4 1012.3 0.6
29/11:00am 17.3 11.3 16.5 95 0.5 N 43 54 23 29 1012.2 1012.1 0.4
29/10:30am 17.9 11.5 15.3 85 1.5 N 43 56 23 30 1012.2 1012.1 0.0
29/10:00am 17.6 12.5 15.9 90 1.0 N 37 48 20 26 1012.2 1012.1 0.0
29/09:30am 16.8 11.3 14.8 88 1.2 N 37 48 20 26 1012.8 1012.7 0.0
29/09:00am 16.5 12.0 15.4 93 0.6 N 33 44 18 24 1013.0 1012.9 9.6
29/08:30am 16.2 11.9 16.0 99 0.1 N 33 43 18 23 1013.0 1012.9 9.6
29/08:00am 16.3 12.6 16.1 99 0.1 N 30 37 16 20 1012.9 1012.8 9.6
29/07:30am 16.0 12.6 15.8 99 0.1 N 28 37 15 20 1012.7 1012.6 9.6
29/07:00am 16.4 13.5 16.2 99 0.1 N 26 33 14 18 1012.7 1012.6 9.6
29/06:30am 16.3 13.0 16.1 99 0.1 N 28 35 15 19 1012.5 1012.4 9.6
29/06:00am 16.0 13.0 15.8 99 0.1 N 26 33 14 18 1012.2 1012.1 9.6
29/05:30am 16.0 13.4 15.8 99 0.1 NNE 24 30 13 16 1012.2 1012.1 9.6
29/05:00am 16.2 13.6 15.9 98 0.2 N 24 30 13 16 1012.3 1012.2 9.6
29/04:30am 16.4 14.5 15.8 96 0.4 N 20 30 11 16 1012.3 1012.2 9.6
29/04:00am 16.7 14.4 15.7 94 0.6 N 22 30 12 16 1012.3 1012.2 9.6
29/03:30am 17.1 14.7 15.3 89 1.1 N 22 30 12 16 1012.6 1012.5 9.6
29/03:00am 17.8 14.1 13.9 78 2.2 NNW 26 33 14 18 1012.8 1012.7 9.6
29/02:30am 17.9 14.2 14.0 78 2.2 NNW 26 32 14 17 1013.0 1012.9 9.6
29/02:00am 17.8 14.5 14.1 79 2.1 NNW 24 30 13 16 1013.2 1013.1 9.6
29/01:30am 17.7 14.3 13.8 78 2.2 NNW 24 28 13 15 1013.7 1013.6 9.6
29/01:00am 17.6 14.1 13.5 77 2.3 NNW 24 32 13 17 1013.9 1013.8 9.6
29/12:30am 17.7 14.3 13.6 77 2.3 NNW 24 30 13 16 1014.2 1014.1 9.6
29/12:00am 17.7 14.7 13.8 78 2.2 NNW 22 26 12 14 1014.4 1014.3 9.6
 
Date/Time
WST
Tmp

°C
App
Tmp
°C
Dew
Point
°C
Rel
Hum
%
Delta-T

°C
Wind Press
QNH
hPa
Press
MSL
hPa
Rain
since
9 am
mm
Dir
 
Spd
km/h
Gust
km/h
Spd
kts
Gust
kts
28/11:30pm 17.8 14.8 13.7 77 2.3 NNW 22 28 12 15 1014.7 1014.6 9.6
28/11:00pm 17.9 15.2 13.6 76 2.4 NNW 20 26 11 14 1015.0 1014.9 9.6
28/10:30pm 17.8 14.7 13.3 75 2.5 NNW 22 26 12 14 1015.3 1015.2 9.6
28/10:00pm 18.0 15.0 13.7 76 2.4 NW 22 26 12 14 1015.7 1015.6 9.6
28/09:30pm 17.9 15.4 14.0 78 2.2 NNW 20 24 11 13 1015.8 1015.7 9.6
28/09:00pm 17.6 15.4 14.3 81 1.9 NNW 19 22 10 12 1015.5 1015.4 9.6
28/08:30pm 17.6 15.7 14.3 81 1.9 N 17 20 9 11 1015.6 1015.5 9.6
28/08:00pm 17.2 15.5 13.7 80 2.0 NNW 15 17 8 9 1015.5 1015.4 9.6
28/07:30pm 17.4 16.0 13.3 77 2.3 NW 13 15 7 8 1015.4 1015.3 9.6
28/07:00pm 17.5 17.4 14.0 80 2.0 NNE 7 9 4 5 1015.3 1015.2 9.6
28/06:30pm 17.5 18.8 14.0 80 2.0 CALM 0 0 0 0 1015.0 1014.9 9.6
28/06:00pm 17.7 18.8 13.6 77 2.3 CALM 0 0 0 0 1014.6 1014.5 9.6
28/05:30pm 18.8 20.2 14.5 76 2.5 CALM 0 0 0 0 1014.5 1014.4 9.6
28/05:00pm 18.2 17.7 13.7 75 2.6 NW 9 11 5 6 1014.5 1014.4 9.6
28/04:30pm 19.0 18.7 14.5 75 2.6 NW 9 11 5 6 1014.6 1014.5 9.6
28/04:00pm 18.8 18.0 14.1 74 2.7 WNW 11 15 6 8 1014.3 1014.2 9.6
28/03:30pm 19.4 18.0 14.4 73 2.9 WNW 15 20 8 11 1014.3 1014.2 9.6
28/03:00pm 19.3 18.6 14.3 73 2.9 W 11 17 6 9 1014.3 1014.2 9.6
28/02:30pm 19.4 18.8 14.6 74 2.8 WSW 11 17 6 9 1014.4 1014.3 9.6
28/02:00pm 19.8 19.5 15.4 76 2.6 WNW 11 17 6 9 1014.3 1014.2 9.6
28/01:30pm 18.7 18.0 15.4 81 1.9 SW 13 15 7 8 1014.7 1014.6 9.6
28/01:00pm 18.6 18.5 16.0 85 1.5 WSW 11 17 6 9 1014.8 1014.7 9.6
28/12:30pm 17.9 17.9 17.1 95 0.5 NNW 13 17 7 9 1015.2 1015.1 9.6
28/12:00pm 17.2 16.3 16.9 98 0.2 N 17 20 9 11 1015.6 1015.5 9.6
28/11:30am 16.8 14.9 16.6 99 0.1 N 22 54 12 29 1015.6 1015.5 9.6
28/11:20am 16.3 12.9 15.8 97 0.3 NNW 28 52 15 28 1015.0 1014.9 8.2
28/11:00am 17.3 15.6 16.3 94 0.6 NNW 20 28 11 15 1015.5 1015.4 1.6
28/10:30am 17.0 15.6 16.5 97 0.3 N 19 26 10 14 1015.7 1015.6 1.4
28/10:00am 16.9 13.0 15.6 92 0.8 N 30 37 16 20 1015.3 1015.2 0.0
28/09:30am 18.4 15.9 17.1 92 0.8 NNW 26 35 14 19 1015.6 1015.5 0.0
28/09:00am 17.7 15.7 17.4 98 0.2 NNW 24 33 13 18 1015.4 1015.3 16.6
28/08:30am 16.5 14.4 16.3 99 0.1 N 22 32 12 17 1015.4 1015.3 16.6
28/08:00am 16.8 15.1 16.2 96 0.4 N 20 33 11 18 1015.0 1014.9 11.2
28/07:30am 17.0 14.3 15.5 91 0.9 N 24 30 13 16 1014.7 1014.6 1.6
28/07:00am 18.1 15.2 15.0 82 1.8 NNW 24 32 13 17 1014.5 1014.4 0.0
28/06:30am 17.8 15.1 14.7 82 1.8 NNW 22 30 12 16 1014.4 1014.3 0.0
28/06:00am 17.8 15.1 14.5 81 1.9 NNW 22 26 12 14 1014.4 1014.3 0.0
28/05:30am 17.6 15.4 14.3 81 1.9 NNW 19 24 10 13 1014.3 1014.2 0.0
28/05:00am 17.6 15.0 13.9 79 2.1 NNW 20 26 11 14 1014.4 1014.3 0.0
28/04:30am 17.5 15.0 14.0 80 2.0 NW 20 26 11 14 1014.4 1014.3 0.0
28/04:00am 17.4 14.8 13.7 79 2.1 NW 20 24 11 13 1014.3 1014.2 0.0
28/03:30am 17.0 14.3 12.9 77 2.3 WNW 19 22 10 12 1014.2 1014.1 0.0
28/03:00am 17.3 15.3 13.8 80 2.0 NW 17 24 9 13 1014.2 1014.1 0.0
28/02:30am 17.3 15.1 13.4 78 2.2 NW 17 20 9 11 1014.4 1014.3 0.0
28/02:00am 17.1 14.3 12.6 75 2.5 NW 19 24 10 13 1014.4 1014.3 0.0
28/01:30am 17.2 13.6 11.9 71 2.9 NW 22 26 12 14 1014.4 1014.3 0.0
28/01:00am 16.9 13.9 12.0 73 2.7 NW 19 24 10 13 1014.2 1014.1 0.0
28/12:30am 17.4 13.9 12.1 71 2.9 NNW 22 26 12 14 1014.1 1014.0 0.0
28/12:00am 17.4 14.3 12.3 72 2.8 NW 20 26 11 14 1014.1 1014.0 0.0
 
Date/Time
WST
Tmp

°C
App
Tmp
°C
Dew
Point
°C
Rel
Hum
%
Delta-T

°C
Wind Press
QNH
hPa
Press
MSL
hPa
Rain
since
9 am
mm
Dir
 
Spd
km/h
Gust
km/h
Spd
kts
Gust
kts
27/11:30pm 17.4 14.3 12.3 72 2.8 NW 20 24 11 13 1014.3 1014.2 0.0
27/11:00pm 17.6 13.8 12.3 71 2.9 NNW 24 30 13 16 1014.3 1014.2 0.0
27/10:30pm 17.7 14.0 12.6 72 2.8 NNW 24 30 13 16 1014.3 1014.2 0.0
27/10:00pm 17.6 14.3 12.9 74 2.6 N 22 30 12 16 1014.4 1014.3 0.0
27/09:30pm 17.6 14.4 14.3 81 1.9 N 24 30 13 16 1014.5 1014.4 0.0
27/09:00pm 17.7 14.8 14.0 79 2.1 N 22 28 12 15 1014.4 1014.3 0.0
27/08:30pm 17.8 14.8 12.5 71 2.9 N 20 26 11 14 1014.5 1014.4 0.0
27/08:00pm 18.1 14.9 11.4 65 3.7 NNW 19 26 10 14 1014.3 1014.2 0.0

Latest Capital City Observations: Canberra | Sydney | Melbourne | Brisbane | Adelaide | Perth | Hobart | Darwin

Other Formats:

Comma delimited format used in spreadsheet applications
http://www.bom.gov.au/fwo/IDW60901/IDW60901.94602.axf

JavaScript Object Notation format (JSON) in row-major order
http://www.bom.gov.au/fwo/IDW60901/IDW60901.94602.json